createdAt,value
2022-10-05T00:00:22.605Z,10.30
2022-10-05T00:02:52.427Z,10.30
2022-10-05T00:05:32.661Z,10.30
2022-10-05T00:08:32.887Z,10.30
2022-10-05T00:11:00.153Z,10.40
2022-10-05T00:13:29.778Z,10.40
2022-10-05T00:16:11.012Z,10.40
2022-10-05T00:18:38.666Z,10.40
2022-10-05T00:21:27.071Z,10.40
2022-10-05T00:23:57.693Z,10.40
2022-10-05T00:26:26.924Z,10.40
2022-10-05T00:28:54.840Z,10.30
2022-10-05T00:31:31.731Z,10.40
2022-10-05T00:33:59.360Z,10.40
2022-10-05T00:36:26.437Z,10.40
2022-10-05T00:38:53.802Z,10.40
2022-10-05T00:41:23.359Z,10.40
2022-10-05T00:44:15.510Z,10.40
2022-10-05T00:46:48.159Z,10.40
2022-10-05T00:49:18.195Z,10.40
2022-10-05T00:51:55.485Z,10.40
2022-10-05T00:54:43.782Z,10.30
2022-10-05T00:57:28.074Z,10.30
2022-10-05T00:59:57.868Z,10.30
2022-10-05T01:02:47.042Z,10.20
2022-10-05T01:05:37.417Z,10.20
2022-10-05T01:08:41.841Z,10.20
2022-10-05T01:11:14.970Z,10.20
2022-10-05T01:13:50.754Z,10.20
2022-10-05T01:16:55.235Z,10.10
2022-10-05T01:19:48.993Z,10.20
2022-10-05T01:22:33.305Z,10.20
2022-10-05T01:25:20.993Z,10.10
2022-10-05T01:28:00.031Z,10.10
2022-10-05T01:30:30.472Z,10.10
2022-10-05T01:33:14.709Z,10.10
2022-10-05T01:35:49.524Z,10.10
2022-10-05T01:38:37.527Z,10.10
2022-10-05T01:41:20.428Z,10.10
2022-10-05T01:43:59.918Z,10.10
2022-10-05T01:46:41.160Z,10.10
2022-10-05T01:49:16.956Z,10.10
2022-10-05T01:51:55.601Z,10.10
2022-10-05T01:54:49.952Z,10.10
2022-10-05T01:57:28.842Z,10.10
2022-10-05T02:00:07.634Z,10.10
2022-10-05T02:02:38.343Z,10.10
2022-10-05T02:05:11.628Z,10.10
2022-10-05T02:08:29.766Z,10.00
2022-10-05T02:11:07.857Z,10.00
2022-10-05T02:13:34.631Z,9.90
2022-10-05T02:16:08.065Z,9.90
2022-10-05T02:18:41.922Z,9.90
2022-10-05T02:21:09.052Z,10.00
2022-10-05T02:23:40.603Z,10.00
2022-10-05T02:26:11.090Z,10.00
2022-10-05T02:28:58.671Z,10.00
2022-10-05T02:31:35.099Z,10.00
2022-10-05T02:34:37.830Z,9.90
2022-10-05T02:37:29.025Z,10.00
2022-10-05T02:40:29.833Z,10.00
2022-10-05T02:43:15.272Z,9.90
2022-10-05T02:45:50.403Z,9.90
2022-10-05T02:48:41.554Z,10.00
2022-10-05T02:51:27.700Z,9.90
2022-10-05T02:54:15.530Z,10.00
2022-10-05T02:57:00.436Z,10.00
2022-10-05T02:59:34.256Z,10.00
2022-10-05T03:02:14.214Z,10.00
2022-10-05T03:05:05.131Z,10.00
2022-10-05T03:07:50.005Z,10.00
2022-10-05T03:10:26.052Z,10.00
2022-10-05T03:13:24.717Z,10.00
2022-10-05T03:16:13.017Z,10.00
2022-10-05T03:19:17.104Z,10.00
2022-10-05T03:21:46.943Z,10.00
2022-10-05T03:24:13.909Z,10.00
2022-10-05T03:26:51.708Z,10.00
2022-10-05T03:29:46.113Z,10.00
2022-10-05T03:32:29.165Z,10.00
2022-10-05T03:35:31.287Z,10.00
2022-10-05T03:37:57.962Z,10.00
2022-10-05T03:40:39.594Z,10.00
2022-10-05T03:43:40.337Z,10.00
2022-10-05T03:46:36.271Z,10.00
2022-10-05T03:49:47.264Z,10.00
2022-10-05T03:52:23.271Z,10.00
2022-10-05T03:55:26.280Z,10.00
2022-10-05T03:57:57.102Z,10.00
2022-10-05T04:00:24.326Z,10.00
2022-10-05T04:03:04.404Z,10.00
2022-10-05T04:05:37.058Z,10.00
2022-10-05T04:08:23.176Z,10.00
2022-10-05T04:10:52.768Z,10.00
2022-10-05T04:13:41.038Z,10.00
2022-10-05T04:16:22.550Z,10.10
2022-10-05T04:19:04.256Z,10.10
2022-10-05T04:21:40.773Z,10.00
2022-10-05T04:24:34.299Z,10.10
2022-10-05T04:27:07.585Z,10.10
2022-10-05T04:29:54.028Z,10.10
2022-10-05T04:32:47.991Z,10.00
2022-10-05T04:35:23.211Z,10.10
2022-10-05T04:38:02.302Z,10.10
2022-10-05T04:40:41.906Z,10.10
2022-10-05T04:43:11.839Z,10.10
2022-10-05T04:45:41.375Z,10.20
2022-10-05T04:48:23.290Z,10.20
2022-10-05T04:50:50.102Z,10.20
2022-10-05T04:53:48.215Z,10.20
2022-10-05T04:56:38.743Z,10.20
2022-10-05T04:59:14.644Z,10.20
2022-10-05T05:01:56.729Z,10.20
2022-10-05T05:04:42.331Z,10.30
2022-10-05T05:07:21.123Z,10.30
2022-10-05T05:10:15.629Z,10.30
2022-10-05T05:12:57.510Z,10.30
2022-10-05T05:15:39.660Z,10.40
2022-10-05T05:19:03.131Z,10.40
2022-10-05T05:21:38.182Z,10.50
2022-10-05T05:24:05.154Z,10.50
2022-10-05T05:26:53.487Z,10.50
2022-10-05T05:30:01.797Z,10.60
2022-10-05T05:33:05.775Z,10.60
2022-10-05T05:36:01.419Z,10.60
2022-10-05T05:38:45.689Z,10.70
2022-10-05T05:41:22.656Z,10.70
2022-10-05T05:43:55.136Z,10.70
2022-10-05T05:46:38.868Z,10.80
2022-10-05T05:49:38.920Z,10.90
2022-10-05T05:52:18.148Z,10.90
2022-10-05T05:54:53.374Z,10.90
2022-10-05T05:58:00.646Z,11.00
2022-10-05T06:00:34.664Z,11.00
2022-10-05T06:03:14.294Z,11.00
2022-10-05T06:05:49.959Z,11.00
2022-10-05T06:08:25.013Z,11.00
2022-10-05T06:11:00.149Z,11.10
2022-10-05T06:13:33.522Z,11.10
2022-10-05T06:16:23.416Z,11.20
2022-10-05T06:19:10.452Z,11.20
2022-10-05T06:21:45.532Z,11.20
2022-10-05T06:25:06.781Z,11.30
2022-10-05T06:27:55.848Z,11.30
2022-10-05T06:30:23.150Z,11.30
2022-10-05T06:33:18.642Z,11.40
2022-10-05T06:35:52.635Z,11.40
2022-10-05T06:38:35.986Z,11.40
2022-10-05T06:41:09.283Z,11.50
2022-10-05T06:43:59.315Z,11.60
2022-10-05T06:46:36.612Z,11.60
2022-10-05T06:49:20.634Z,11.60
2022-10-05T06:52:06.860Z,11.60
2022-10-05T06:54:49.713Z,11.70
2022-10-05T06:57:47.241Z,11.70
2022-10-05T07:00:40.902Z,11.80
2022-10-05T07:03:38.644Z,11.80
2022-10-05T07:06:28.161Z,11.90
2022-10-05T07:09:04.153Z,11.90
2022-10-05T07:11:37.049Z,11.90
2022-10-05T07:14:12.921Z,11.90
2022-10-05T07:16:45.804Z,12.00
2022-10-05T07:19:38.625Z,12.00
2022-10-05T07:22:31.812Z,11.90
2022-10-05T07:25:16.493Z,11.90
2022-10-05T07:27:58.183Z,12.00
2022-10-05T07:30:24.915Z,12.00
2022-10-05T07:33:09.408Z,12.00
2022-10-05T07:36:13.924Z,12.10
2022-10-05T07:38:53.984Z,12.10
2022-10-05T07:41:48.304Z,12.10
2022-10-05T07:44:43.859Z,12.20
2022-10-05T07:47:19.496Z,12.30
2022-10-05T07:49:59.653Z,12.30
2022-10-05T07:52:34.632Z,12.40
2022-10-05T07:55:28.062Z,12.40
2022-10-05T07:58:20.800Z,12.50
2022-10-05T08:01:06.582Z,12.40
2022-10-05T08:04:06.243Z,12.50
2022-10-05T08:06:51.276Z,12.50
2022-10-05T08:09:26.269Z,12.60
2022-10-05T08:12:06.605Z,12.60
2022-10-05T08:14:46.603Z,12.70
2022-10-05T08:17:33.182Z,12.80
2022-10-05T08:20:26.104Z,12.90
2022-10-05T08:23:01.195Z,12.90
2022-10-05T08:25:45.394Z,13.00
2022-10-05T08:28:23.703Z,13.00
2022-10-05T08:31:19.081Z,13.10
2022-10-05T08:33:54.813Z,13.10
2022-10-05T08:36:49.251Z,13.20
2022-10-05T08:39:21.512Z,13.30
2022-10-05T08:42:15.839Z,13.40
2022-10-05T08:45:12.102Z,13.50
2022-10-05T08:48:16.948Z,13.40
2022-10-05T08:51:03.977Z,13.50
2022-10-05T08:54:09.886Z,13.50
2022-10-05T08:56:36.622Z,13.50
2022-10-05T08:59:24.879Z,13.40
2022-10-05T09:02:00.537Z,13.40
2022-10-05T09:04:58.191Z,13.40
2022-10-05T09:07:44.347Z,13.40
2022-10-05T09:10:35.996Z,13.30
2022-10-05T09:13:13.805Z,13.40
2022-10-05T09:15:57.451Z,13.40
2022-10-05T09:18:57.129Z,13.40
2022-10-05T09:21:56.828Z,13.40
2022-10-05T09:24:39.274Z,13.40
2022-10-05T09:27:15.499Z,13.50
2022-10-05T09:30:03.929Z,13.60
2022-10-05T09:32:49.391Z,13.70
2022-10-05T09:35:34.961Z,13.70
2022-10-05T09:38:20.889Z,13.80
2022-10-05T09:41:21.915Z,13.70
2022-10-05T09:43:54.834Z,13.80
2022-10-05T09:47:02.616Z,13.70
2022-10-05T09:49:29.405Z,13.70
2022-10-05T09:52:26.133Z,13.70
2022-10-05T09:54:57.010Z,13.60
2022-10-05T09:57:56.122Z,13.60
2022-10-05T10:00:37.151Z,13.60
2022-10-05T10:03:25.422Z,13.60
2022-10-05T10:06:12.901Z,13.70
2022-10-05T10:09:17.696Z,13.60
2022-10-05T10:12:22.643Z,13.70
2022-10-05T10:15:24.071Z,13.90
2022-10-05T10:17:59.653Z,14.10
2022-10-05T10:20:40.917Z,14.10
2022-10-05T10:23:12.725Z,14.20
2022-10-05T10:25:48.371Z,14.20
2022-10-05T10:28:24.328Z,14.10
2022-10-05T10:31:18.552Z,14.00
2022-10-05T10:34:06.927Z,14.10
2022-10-05T10:37:01.665Z,14.10
2022-10-05T10:40:05.856Z,14.10
2022-10-05T10:42:51.869Z,14.30
2022-10-05T10:45:28.851Z,14.50
2022-10-05T10:48:11.348Z,14.50
2022-10-05T10:51:12.610Z,14.50
2022-10-05T10:53:45.425Z,14.40
2022-10-05T10:56:15.556Z,14.40
2022-10-05T10:58:57.421Z,14.30
2022-10-05T11:01:35.306Z,14.30
2022-10-05T11:04:37.419Z,14.20
2022-10-05T11:07:31.942Z,14.10
2022-10-05T11:10:26.295Z,14.10
2022-10-05T11:13:24.966Z,14.10
2022-10-05T11:16:01.134Z,14.10
2022-10-05T11:18:55.799Z,14.10
2022-10-05T11:22:07.504Z,14.10
2022-10-05T11:24:50.211Z,14.20
2022-10-05T11:27:48.388Z,14.20
2022-10-05T11:30:25.744Z,14.30
2022-10-05T11:33:19.590Z,14.30
2022-10-05T11:36:18.374Z,14.30
2022-10-05T11:39:18.785Z,14.30
2022-10-05T11:42:15.619Z,14.30
2022-10-05T11:45:14.463Z,14.40
2022-10-05T11:48:14.804Z,14.40
2022-10-05T11:51:10.596Z,14.40
2022-10-05T11:53:41.456Z,14.30
2022-10-05T11:56:23.969Z,14.40
2022-10-05T11:59:01.799Z,14.40
2022-10-05T12:01:41.629Z,14.40
2022-10-05T12:04:26.182Z,14.50
2022-10-05T12:07:42.443Z,14.50
2022-10-05T12:10:32.745Z,14.50
2022-10-05T12:13:08.826Z,14.60
2022-10-05T12:15:44.825Z,14.50
2022-10-05T12:18:18.151Z,14.50
2022-10-05T12:20:56.226Z,14.50
2022-10-05T12:23:33.577Z,14.50
2022-10-05T12:26:15.692Z,14.50
2022-10-05T12:29:01.248Z,14.40
2022-10-05T12:32:12.911Z,14.40
2022-10-05T12:35:04.994Z,14.30
2022-10-05T12:37:57.655Z,14.30
2022-10-05T12:40:32.976Z,14.40
2022-10-05T12:43:21.844Z,14.50
2022-10-05T12:46:12.232Z,14.40
2022-10-05T12:49:26.976Z,14.50
2022-10-05T12:52:02.077Z,14.50
2022-10-05T12:54:46.913Z,14.50
2022-10-05T12:57:42.819Z,14.50
2022-10-05T13:00:13.932Z,14.40
2022-10-05T13:02:51.063Z,14.40
2022-10-05T13:05:35.864Z,14.30
2022-10-05T13:08:14.521Z,14.30
2022-10-05T13:10:52.876Z,14.30
2022-10-05T13:13:34.274Z,14.30
2022-10-05T13:16:50.224Z,14.20
2022-10-05T13:19:46.684Z,14.20
2022-10-05T13:22:16.154Z,14.10
2022-10-05T13:25:15.043Z,14.10
2022-10-05T13:27:55.155Z,14.10
2022-10-05T13:30:22.574Z,14.00
2022-10-05T13:33:05.396Z,14.00
2022-10-05T13:35:51.318Z,14.00
2022-10-05T13:38:36.383Z,14.10
2022-10-05T13:41:09.639Z,14.10
2022-10-05T13:43:39.977Z,14.00
2022-10-05T13:46:45.160Z,14.00
2022-10-05T13:49:38.776Z,14.00
2022-10-05T13:52:08.919Z,14.00
2022-10-05T13:54:52.647Z,14.00
2022-10-05T13:57:34.406Z,14.00
2022-10-05T14:00:26.268Z,13.90
2022-10-05T14:02:56.775Z,13.90
2022-10-05T14:05:27.759Z,13.80
2022-10-05T14:08:02.223Z,13.80
2022-10-05T14:10:41.920Z,13.80
2022-10-05T14:13:20.587Z,13.80
2022-10-05T14:16:20.409Z,13.80
2022-10-05T14:19:10.995Z,13.80
2022-10-05T14:22:07.900Z,13.80
2022-10-05T14:24:44.911Z,13.80
2022-10-05T14:27:27.610Z,13.80
2022-10-05T14:30:12.538Z,13.80
2022-10-05T14:32:51.484Z,13.80
2022-10-05T14:35:22.132Z,13.80
2022-10-05T14:37:59.783Z,13.80
2022-10-05T14:40:34.004Z,13.80
2022-10-05T14:43:21.202Z,13.80
2022-10-05T14:46:05.178Z,13.80
2022-10-05T14:48:42.835Z,13.80
2022-10-05T14:51:12.921Z,13.80
2022-10-05T14:53:56.760Z,13.80
2022-10-05T14:56:53.159Z,13.80
2022-10-05T14:59:23.183Z,13.80
2022-10-05T15:01:54.649Z,13.80
2022-10-05T15:04:24.444Z,13.80
2022-10-05T15:07:05.618Z,13.80
2022-10-05T15:10:08.947Z,13.80
2022-10-05T15:12:40.623Z,13.80
2022-10-05T15:15:25.928Z,13.80
2022-10-05T15:18:34.979Z,13.70
2022-10-05T15:21:17.145Z,13.70
2022-10-05T15:23:52.966Z,13.70
2022-10-05T15:26:22.853Z,13.70
2022-10-05T15:29:01.936Z,13.70
2022-10-05T15:31:50.811Z,13.60
2022-10-05T15:34:31.293Z,13.60
2022-10-05T15:37:04.394Z,13.60
2022-10-05T15:39:35.907Z,13.50
2022-10-05T15:42:05.114Z,13.50
2022-10-05T15:44:54.104Z,13.40
2022-10-05T15:47:52.158Z,13.40
2022-10-05T15:50:26.698Z,13.40
2022-10-05T15:53:02.548Z,13.30
2022-10-05T15:55:42.262Z,13.30
2022-10-05T15:58:34.693Z,13.30
2022-10-05T16:01:12.409Z,13.20
2022-10-05T16:04:06.005Z,13.30
2022-10-05T16:07:01.072Z,13.30
2022-10-05T16:09:58.812Z,13.30
2022-10-05T16:12:51.513Z,13.20
2022-10-05T16:15:30.149Z,13.20
2022-10-05T16:18:30.298Z,13.20
2022-10-05T16:21:05.419Z,13.20
2022-10-05T16:23:47.455Z,13.20
2022-10-05T16:26:33.173Z,13.20
2022-10-05T16:29:24.773Z,13.30
2022-10-05T16:32:02.632Z,13.30
2022-10-05T16:34:38.111Z,13.20
2022-10-05T16:37:34.780Z,13.20
2022-10-05T16:40:28.561Z,13.30
2022-10-05T16:43:20.136Z,13.30
2022-10-05T16:45:55.735Z,13.20
2022-10-05T16:48:35.038Z,13.20
2022-10-05T16:51:26.722Z,13.20
2022-10-05T16:54:11.608Z,13.20
2022-10-05T16:56:44.860Z,13.20
2022-10-05T16:59:36.076Z,13.20
2022-10-05T17:02:09.176Z,13.20
2022-10-05T17:04:46.332Z,13.20
2022-10-05T17:07:41.326Z,13.20
2022-10-05T17:10:38.023Z,13.20
2022-10-05T17:13:29.846Z,13.20
2022-10-05T17:16:21.953Z,13.20
2022-10-05T17:19:00.885Z,13.20
2022-10-05T17:21:34.818Z,13.20
2022-10-05T17:24:15.593Z,13.20
2022-10-05T17:27:17.889Z,13.20
2022-10-05T17:29:53.952Z,13.20
2022-10-05T17:32:39.657Z,13.20
2022-10-05T17:35:20.669Z,13.20
2022-10-05T17:38:14.504Z,13.20
2022-10-05T17:41:01.092Z,13.20
2022-10-05T17:43:30.779Z,13.20
2022-10-05T17:46:00.641Z,13.20
2022-10-05T17:48:44.676Z,13.20
2022-10-05T17:51:53.337Z,13.20
2022-10-05T17:54:43.152Z,13.20
2022-10-05T17:57:09.949Z,13.20
2022-10-05T17:59:52.341Z,13.20
2022-10-05T18:02:40.649Z,13.20
2022-10-05T18:05:14.561Z,13.20
2022-10-05T18:07:48.745Z,13.20
2022-10-05T18:10:24.635Z,13.20
2022-10-05T18:13:00.258Z,13.20
2022-10-05T18:15:27.016Z,13.20
2022-10-05T18:18:33.122Z,13.20
2022-10-05T18:21:17.821Z,13.20
2022-10-05T18:23:59.402Z,13.20
2022-10-05T18:26:47.854Z,13.20
2022-10-05T18:29:49.713Z,13.20
2022-10-05T18:32:22.477Z,13.20
2022-10-05T18:35:02.407Z,13.20
2022-10-05T18:37:50.976Z,13.20
2022-10-05T18:40:21.337Z,13.20
2022-10-05T18:42:56.157Z,13.30
2022-10-05T18:45:37.983Z,13.30
2022-10-05T18:48:29.828Z,13.30
2022-10-05T18:51:28.504Z,13.30
2022-10-05T18:54:33.067Z,13.30
2022-10-05T18:57:24.557Z,13.30
2022-10-05T19:00:03.377Z,13.30
2022-10-05T19:02:52.580Z,13.30
2022-10-05T19:05:48.723Z,13.30
2022-10-05T19:08:40.681Z,13.40
2022-10-05T19:11:25.734Z,13.40
2022-10-05T19:14:17.804Z,13.40
2022-10-05T19:17:19.766Z,13.40
2022-10-05T19:20:21.914Z,13.40
2022-10-05T19:22:51.437Z,13.40
2022-10-05T19:25:50.442Z,13.40
2022-10-05T19:28:20.582Z,13.40
2022-10-05T19:31:13.570Z,13.40
2022-10-05T19:34:33.275Z,13.40
2022-10-05T19:37:05.942Z,13.40
2022-10-05T19:39:36.193Z,13.40
2022-10-05T19:42:47.174Z,13.40
2022-10-05T19:45:26.013Z,13.40
2022-10-05T19:48:23.569Z,13.40
2022-10-05T19:51:01.369Z,13.40
2022-10-05T19:53:37.134Z,13.40
2022-10-05T19:56:34.202Z,13.40
2022-10-05T19:59:18.513Z,13.40
2022-10-05T20:01:51.786Z,13.50
2022-10-05T20:04:36.641Z,13.40
2022-10-05T20:07:04.958Z,13.50
2022-10-05T20:09:50.787Z,13.50
2022-10-05T20:12:17.606Z,13.50
2022-10-05T20:15:04.353Z,13.50
2022-10-05T20:17:50.002Z,13.50
2022-10-05T20:20:47.119Z,13.50
2022-10-05T20:23:24.276Z,13.50
2022-10-05T20:26:10.823Z,13.50
2022-10-05T20:28:37.870Z,13.50
2022-10-05T20:31:07.734Z,13.50
2022-10-05T20:33:34.951Z,13.50
2022-10-05T20:36:03.753Z,13.50
2022-10-05T20:38:31.803Z,13.50
2022-10-05T20:40:58.754Z,13.50
2022-10-05T20:43:25.583Z,13.50
2022-10-05T20:45:53.803Z,13.50
2022-10-05T20:48:20.713Z,13.50
2022-10-05T20:50:47.601Z,13.50
2022-10-05T20:53:14.432Z,13.50
2022-10-05T20:55:41.277Z,13.50
2022-10-05T20:58:09.095Z,13.50
2022-10-05T21:00:54.345Z,13.50
2022-10-05T21:03:21.208Z,13.40
2022-10-05T21:05:48.045Z,13.50
2022-10-05T21:08:15.258Z,13.50
2022-10-05T21:10:42.084Z,13.50
2022-10-05T21:13:09.164Z,13.50
2022-10-05T21:15:36.093Z,13.50
2022-10-05T21:18:02.992Z,13.50
2022-10-05T21:20:29.867Z,13.40
2022-10-05T21:22:56.726Z,13.50
2022-10-05T21:25:23.598Z,13.50
2022-10-05T21:27:50.460Z,13.50
2022-10-05T21:30:17.411Z,13.50
2022-10-05T21:32:44.894Z,13.50
2022-10-05T21:35:11.940Z,13.50
2022-10-05T21:37:38.808Z,13.50
2022-10-05T21:40:06.063Z,13.50
2022-10-05T21:42:33.068Z,13.50
2022-10-05T21:44:59.900Z,13.50
2022-10-05T21:47:26.844Z,13.50
2022-10-05T21:49:53.967Z,13.50
2022-10-05T21:52:21.379Z,13.50
2022-10-05T21:54:48.378Z,13.50
2022-10-05T21:57:15.467Z,13.50
2022-10-05T21:59:43.007Z,13.50
2022-10-05T22:02:09.986Z,13.40
2022-10-05T22:04:36.852Z,13.50
2022-10-05T22:07:18.465Z,13.50
2022-10-05T22:09:47.016Z,13.40
2022-10-05T22:12:13.846Z,13.40
2022-10-05T22:14:41.159Z,13.40
2022-10-05T22:17:27.287Z,13.40
2022-10-05T22:19:55.806Z,13.40
2022-10-05T22:22:22.731Z,13.40
2022-10-05T22:24:50.003Z,13.30
2022-10-05T22:27:17.167Z,13.30
2022-10-05T22:29:44.252Z,13.30
2022-10-05T22:32:11.749Z,13.30
2022-10-05T22:34:38.598Z,13.20
2022-10-05T22:37:06.760Z,13.20
2022-10-05T22:39:33.666Z,13.10
2022-10-05T22:42:00.575Z,13.10
2022-10-05T22:44:27.946Z,13.10
2022-10-05T22:46:54.751Z,13.10
2022-10-05T22:49:21.565Z,13.10
2022-10-05T22:51:49.287Z,13.10
2022-10-05T22:54:16.127Z,13.00
2022-10-05T22:56:43.617Z,13.00
2022-10-05T22:59:10.783Z,13.00
2022-10-05T23:01:37.643Z,12.90
2022-10-05T23:04:04.609Z,12.90
2022-10-05T23:06:31.619Z,12.90
2022-10-05T23:08:58.468Z,12.80
2022-10-05T23:11:27.747Z,12.80
2022-10-05T23:13:59.940Z,12.80
2022-10-05T23:16:28.193Z,12.80
2022-10-05T23:18:56.013Z,12.80
2022-10-05T23:21:24.434Z,12.70
2022-10-05T23:23:51.557Z,12.70
2022-10-05T23:26:21.111Z,12.70
2022-10-05T23:28:49.159Z,12.70
2022-10-05T23:31:21.484Z,12.70
2022-10-05T23:33:49.117Z,12.70
2022-10-05T23:36:21.810Z,12.70
2022-10-05T23:38:49.026Z,12.70
2022-10-05T23:41:17.342Z,12.70
2022-10-05T23:43:44.258Z,12.70
2022-10-05T23:46:11.749Z,12.70
2022-10-05T23:48:38.891Z,12.60
2022-10-05T23:51:07.493Z,12.70
2022-10-05T23:53:34.770Z,12.60
2022-10-05T23:56:01.961Z,12.60
2022-10-05T23:58:29.888Z,12.60
